sensor_id;sensor_type;location;lat;lon;timestamp;pressure;altitude;pressure_sealevel;temperature;humidity
30421;BME280;17218;54.070;10.012;2023-03-15T00:01:20;100384.25;;;0.02;100.00
30421;BME280;17218;54.070;10.012;2023-03-15T00:03:47;100388.31;;;-0.05;100.00
30421;BME280;17218;54.070;10.012;2023-03-15T00:06:14;100389.78;;;-0.13;100.00
30421;BME280;17218;54.070;10.012;2023-03-15T00:08:41;100384.69;;;-0.13;100.00
30421;BME280;17218;54.070;10.012;2023-03-15T00:11:12;100396.88;;;-0.03;100.00
30421;BME280;17218;54.070;10.012;2023-03-15T00:13:40;100395.91;;;-0.06;100.00
30421;BME280;17218;54.070;10.012;2023-03-15T00:16:06;100412.91;;;-0.05;100.00
30421;BME280;17218;54.070;10.012;2023-03-15T00:18:33;100409.06;;;0.08;100.00
30421;BME280;17218;54.070;10.012;2023-03-15T00:21:00;100404.41;;;0.22;100.00
30421;BME280;17218;54.070;10.012;2023-03-15T00:23:27;100412.41;;;0.34;100.00
30421;BME280;17218;54.070;10.012;2023-03-15T00:25:53;100414.13;;;0.35;100.00
30421;BME280;17218;54.070;10.012;2023-03-15T00:28:20;100416.78;;;0.39;100.00
30421;BME280;17218;54.070;10.012;2023-03-15T00:30:48;100419.25;;;0.37;100.00
30421;BME280;17218;54.070;10.012;2023-03-15T00:33:15;100415.66;;;0.30;100.00
30421;BME280;17218;54.070;10.012;2023-03-15T00:35:43;100413.84;;;0.26;100.00
30421;BME280;17218;54.070;10.012;2023-03-15T00:38:10;100413.28;;;0.35;100.00
30421;BME280;17218;54.070;10.012;2023-03-15T00:40:37;100415.34;;;0.49;100.00
30421;BME280;17218;54.070;10.012;2023-03-15T00:43:04;100419.84;;;0.57;100.00
30421;BME280;17218;54.070;10.012;2023-03-15T00:45:31;100428.25;;;0.53;100.00
30421;BME280;17218;54.070;10.012;2023-03-15T00:47:59;100430.59;;;0.47;100.00
30421;BME280;17218;54.070;10.012;2023-03-15T00:50:25;100423.41;;;0.63;100.00
30421;BME280;17218;54.070;10.012;2023-03-15T00:52:52;100427.47;;;0.57;100.00
30421;BME280;17218;54.070;10.012;2023-03-15T00:55:19;100427.44;;;0.56;100.00
30421;BME280;17218;54.070;10.012;2023-03-15T00:57:46;100445.66;;;0.68;100.00
30421;BME280;17218;54.070;10.012;2023-03-15T01:00:15;100437.06;;;0.65;100.00
30421;BME280;17218;54.070;10.012;2023-03-15T01:02:42;100439.03;;;0.75;100.00
30421;BME280;17218;54.070;10.012;2023-03-15T01:05:11;100442.78;;;0.87;100.00
30421;BME280;17218;54.070;10.012;2023-03-15T01:07:38;100457.06;;;0.81;100.00
30421;BME280;17218;54.070;10.012;2023-03-15T01:10:06;100458.56;;;0.75;100.00
30421;BME280;17218;54.070;10.012;2023-03-15T01:12:33;100462.13;;;0.80;100.00
30421;BME280;17218;54.070;10.012;2023-03-15T01:15:02;100465.53;;;0.80;100.00
30421;BME280;17218;54.070;10.012;2023-03-15T01:17:29;100468.09;;;0.80;100.00
30421;BME280;17218;54.070;10.012;2023-03-15T01:19:55;100465.34;;;0.74;100.00
30421;BME280;17218;54.070;10.012;2023-03-15T01:22:24;100480.72;;;0.76;100.00
30421;BME280;17218;54.070;10.012;2023-03-15T01:24:50;100475.34;;;0.66;100.00
30421;BME280;17218;54.070;10.012;2023-03-15T01:27:17;100474.41;;;0.63;100.00
30421;BME280;17218;54.070;10.012;2023-03-15T01:29:43;100484.75;;;0.69;100.00
30421;BME280;17218;54.070;10.012;2023-03-15T01:32:10;100496.75;;;0.71;100.00
30421;BME280;17218;54.070;10.012;2023-03-15T01:34:36;100503.97;;;0.87;100.00
30421;BME280;17218;54.070;10.012;2023-03-15T01:37:03;100510.72;;;1.15;100.00
30421;BME280;17218;54.070;10.012;2023-03-15T01:39:31;100522.38;;;1.38;100.00
30421;BME280;17218;54.070;10.012;2023-03-15T01:41:57;100510.88;;;1.54;100.00
30421;BME280;17218;54.070;10.012;2023-03-15T01:44:48;100524.13;;;1.73;100.00
30421;BME280;17218;54.070;10.012;2023-03-15T01:47:15;100532.22;;;1.90;100.00
30421;BME280;17218;54.070;10.012;2023-03-15T01:49:42;100528.16;;;1.98;100.00
30421;BME280;17218;54.070;10.012;2023-03-15T01:52:12;100538.63;;;2.08;100.00
30421;BME280;17218;54.070;10.012;2023-03-15T01:54:45;100535.38;;;2.15;100.00
30421;BME280;17218;54.070;10.012;2023-03-15T01:57:16;100543.91;;;2.16;100.00
30421;BME280;17218;54.070;10.012;2023-03-15T01:59:48;100550.69;;;2.13;100.00
30421;BME280;17218;54.070;10.012;2023-03-15T02:02:17;100552.13;;;2.03;100.00
30421;BME280;17218;54.070;10.012;2023-03-15T02:04:48;100563.94;;;1.98;100.00
30421;BME280;17218;54.070;10.012;2023-03-15T02:07:19;100556.06;;;1.90;100.00
30421;BME280;17218;54.070;10.012;2023-03-15T02:09:50;100551.59;;;1.82;100.00
30421;BME280;17218;54.070;10.012;2023-03-15T02:12:19;100540.78;;;1.58;100.00
30421;BME280;17218;54.070;10.012;2023-03-15T02:14:47;100545.44;;;1.41;100.00
30421;BME280;17218;54.070;10.012;2023-03-15T02:17:14;100546.88;;;1.31;100.00
30421;BME280;17218;54.070;10.012;2023-03-15T02:19:48;100553.06;;;1.39;100.00
30421;BME280;17218;54.070;10.012;2023-03-15T02:22:26;100564.16;;;1.41;100.00
30421;BME280;17218;54.070;10.012;2023-03-15T02:25:02;100573.00;;;1.53;100.00
30421;BME280;17218;54.070;10.012;2023-03-15T02:27:34;100573.09;;;1.58;100.00
30421;BME280;17218;54.070;10.012;2023-03-15T02:30:03;100590.03;;;1.54;100.00
30421;BME280;17218;54.070;10.012;2023-03-15T02:32:30;100595.19;;;1.55;100.00
30421;BME280;17218;54.070;10.012;2023-03-15T02:34:57;100599.19;;;1.46;100.00
30421;BME280;17218;54.070;10.012;2023-03-15T02:37:23;100606.31;;;1.27;100.00
30421;BME280;17218;54.070;10.012;2023-03-15T02:39:50;100608.13;;;1.31;100.00
30421;BME280;17218;54.070;10.012;2023-03-15T02:42:16;100602.78;;;1.22;100.00
30421;BME280;17218;54.070;10.012;2023-03-15T02:44:45;100612.19;;;1.24;100.00
30421;BME280;17218;54.070;10.012;2023-03-15T02:47:15;100608.03;;;1.28;100.00
30421;BME280;17218;54.070;10.012;2023-03-15T02:49:47;100611.03;;;1.13;100.00
30421;BME280;17218;54.070;10.012;2023-03-15T02:52:14;100619.19;;;1.02;100.00
30421;BME280;17218;54.070;10.012;2023-03-15T02:54:41;100631.53;;;1.16;100.00
30421;BME280;17218;54.070;10.012;2023-03-15T02:57:08;100632.59;;;1.24;100.00
30421;BME280;17218;54.070;10.012;2023-03-15T02:59:35;100633.44;;;1.23;100.00
30421;BME280;17218;54.070;10.012;2023-03-15T03:02:04;100642.84;;;1.26;100.00
30421;BME280;17218;54.070;10.012;2023-03-15T03:04:31;100645.50;;;1.29;100.00
30421;BME280;17218;54.070;10.012;2023-03-15T03:06:57;100646.44;;;1.31;100.00
30421;BME280;17218;54.070;10.012;2023-03-15T03:09:24;100645.78;;;1.38;100.00
30421;BME280;17218;54.070;10.012;2023-03-15T03:11:50;100654.50;;;1.47;100.00
30421;BME280;17218;54.070;10.012;2023-03-15T03:14:17;100656.38;;;1.52;100.00
30421;BME280;17218;54.070;10.012;2023-03-15T03:16:43;100657.78;;;1.42;100.00
30421;BME280;17218;54.070;10.012;2023-03-15T03:19:11;100660.41;;;1.44;100.00
30421;BME280;17218;54.070;10.012;2023-03-15T03:21:38;100655.59;;;1.26;100.00
30421;BME280;17218;54.070;10.012;2023-03-15T03:24:07;100651.78;;;1.11;100.00
30421;BME280;17218;54.070;10.012;2023-03-15T03:26:34;100654.16;;;1.05;100.00
30421;BME280;17218;54.070;10.012;2023-03-15T03:29:02;100651.91;;;0.87;100.00
30421;BME280;17218;54.070;10.012;2023-03-15T03:31:30;100638.09;;;0.80;100.00
30421;BME280;17218;54.070;10.012;2023-03-15T03:33:58;100654.84;;;0.71;100.00
30421;BME280;17218;54.070;10.012;2023-03-15T03:36:26;100651.16;;;0.63;100.00
30421;BME280;17218;54.070;10.012;2023-03-15T03:38:53;100659.91;;;0.70;100.00
30421;BME280;17218;54.070;10.012;2023-03-15T03:41:21;100654.84;;;0.71;100.00
30421;BME280;17218;54.070;10.012;2023-03-15T03:43:48;100660.78;;;0.44;100.00
30421;BME280;17218;54.070;10.012;2023-03-15T03:46:14;100663.81;;;0.34;100.00
30421;BME280;17218;54.070;10.012;2023-03-15T03:48:41;100669.53;;;0.27;100.00
30421;BME280;17218;54.070;10.012;2023-03-15T03:51:07;100674.31;;;0.17;100.00
30421;BME280;17218;54.070;10.012;2023-03-15T03:53:35;100688.63;;;0.14;100.00
30421;BME280;17218;54.070;10.012;2023-03-15T03:56:03;100685.38;;;0.18;100.00
30421;BME280;17218;54.070;10.012;2023-03-15T03:58:30;100702.66;;;0.27;100.00
30421;BME280;17218;54.070;10.012;2023-03-15T04:00:56;100700.94;;;0.26;100.00
30421;BME280;17218;54.070;10.012;2023-03-15T04:03:23;100705.66;;;0.15;100.00
30421;BME280;17218;54.070;10.012;2023-03-15T04:05:51;100722.13;;;0.25;100.00
30421;BME280;17218;54.070;10.012;2023-03-15T04:08:18;100743.06;;;0.40;100.00
30421;BME280;17218;54.070;10.012;2023-03-15T04:10:48;100729.84;;;0.52;100.00
30421;BME280;17218;54.070;10.012;2023-03-15T04:13:15;100729.16;;;0.32;100.00
30421;BME280;17218;54.070;10.012;2023-03-15T04:22:24;100744.56;;;0.10;100.00
30421;BME280;17218;54.070;10.012;2023-03-15T04:24:51;100735.84;;;0.04;100.00
30421;BME280;17218;54.070;10.012;2023-03-15T04:27:19;100728.91;;;-0.01;100.00
30421;BME280;17218;54.070;10.012;2023-03-15T04:29:45;100726.84;;;-0.34;100.00
30421;BME280;17218;54.070;10.012;2023-03-15T04:32:12;100736.63;;;-0.45;100.00
30421;BME280;17218;54.070;10.012;2023-03-15T04:34:38;100731.41;;;-0.48;100.00
30421;BME280;17218;54.070;10.012;2023-03-15T04:37:05;100740.03;;;-0.44;100.00
30421;BME280;17218;54.070;10.012;2023-03-15T04:39:32;100729.31;;;-0.58;100.00
30421;BME280;17218;54.070;10.012;2023-03-15T04:41:58;100739.81;;;-0.72;100.00
30421;BME280;17218;54.070;10.012;2023-03-15T04:44:26;100746.25;;;-0.59;100.00
30421;BME280;17218;54.070;10.012;2023-03-15T04:46:53;100756.84;;;-0.48;100.00
30421;BME280;17218;54.070;10.012;2023-03-15T04:49:19;100762.25;;;-0.40;100.00
30421;BME280;17218;54.070;10.012;2023-03-15T04:51:45;100761.66;;;-0.33;100.00
30421;BME280;17218;54.070;10.012;2023-03-15T04:54:12;100761.91;;;-0.27;100.00
30421;BME280;17218;54.070;10.012;2023-03-15T04:56:38;100770.47;;;-0.25;100.00
30421;BME280;17218;54.070;10.012;2023-03-15T04:59:06;100770.03;;;-0.37;100.00
30421;BME280;17218;54.070;10.012;2023-03-15T05:01:34;100770.06;;;-0.35;100.00
30421;BME280;17218;54.070;10.012;2023-03-15T05:04:00;100782.66;;;-0.39;100.00
30421;BME280;17218;54.070;10.012;2023-03-15T05:06:27;100776.47;;;-0.45;100.00
30421;BME280;17218;54.070;10.012;2023-03-15T05:08:54;100778.09;;;-0.47;100.00
30421;BME280;17218;54.070;10.012;2023-03-15T05:11:20;100786.34;;;-0.53;100.00
30421;BME280;17218;54.070;10.012;2023-03-15T05:13:47;100784.84;;;-0.48;100.00
30421;BME280;17218;54.070;10.012;2023-03-15T05:16:14;100799.91;;;-0.54;100.00
30421;BME280;17218;54.070;10.012;2023-03-15T05:18:42;100802.63;;;-0.50;100.00
30421;BME280;17218;54.070;10.012;2023-03-15T05:21:09;100811.59;;;-0.59;100.00
30421;BME280;17218;54.070;10.012;2023-03-15T05:23:37;100804.31;;;-0.72;100.00
30421;BME280;17218;54.070;10.012;2023-03-15T05:26:04;100810.91;;;-0.77;100.00
30421;BME280;17218;54.070;10.012;2023-03-15T05:28:30;100827.09;;;-0.75;100.00
30421;BME280;17218;54.070;10.012;2023-03-15T05:30:57;100823.06;;;-0.69;100.00
30421;BME280;17218;54.070;10.012;2023-03-15T05:33:24;100830.13;;;-0.83;100.00
30421;BME280;17218;54.070;10.012;2023-03-15T05:35:51;100829.31;;;-1.04;100.00
30421;BME280;17218;54.070;10.012;2023-03-15T05:38:20;100832.03;;;-0.99;100.00
30421;BME280;17218;54.070;10.012;2023-03-15T05:40:50;100836.56;;;-0.92;100.00
30421;BME280;17218;54.070;10.012;2023-03-15T05:43:17;100836.94;;;-1.04;100.00
30421;BME280;17218;54.070;10.012;2023-03-15T05:45:44;100835.94;;;-1.08;100.00
30421;BME280;17218;54.070;10.012;2023-03-15T05:48:11;100850.44;;;-1.05;100.00
30421;BME280;17218;54.070;10.012;2023-03-15T05:50:38;100860.22;;;-0.94;100.00
30421;BME280;17218;54.070;10.012;2023-03-15T05:53:06;100854.25;;;-0.95;100.00
30421;BME280;17218;54.070;10.012;2023-03-15T05:55:32;100861.88;;;-0.95;100.00
30421;BME280;17218;54.070;10.012;2023-03-15T05:58:00;100860.06;;;-0.98;100.00
30421;BME280;17218;54.070;10.012;2023-03-15T06:00:26;100865.47;;;-0.90;100.00
30421;BME280;17218;54.070;10.012;2023-03-15T06:02:53;100872.50;;;-0.84;100.00
30421;BME280;17218;54.070;10.012;2023-03-15T06:05:19;100878.47;;;-0.83;100.00
30421;BME280;17218;54.070;10.012;2023-03-15T06:07:45;100879.72;;;-0.74;100.00
30421;BME280;17218;54.070;10.012;2023-03-15T06:10:13;100888.66;;;-0.62;100.00
30421;BME280;17218;54.070;10.012;2023-03-15T06:12:40;100893.00;;;-0.38;100.00
30421;BME280;17218;54.070;10.012;2023-03-15T06:15:07;100918.03;;;-0.06;100.00
30421;BME280;17218;54.070;10.012;2023-03-15T06:17:34;100932.00;;;0.27;100.00
30421;BME280;17218;54.070;10.012;2023-03-15T06:20:00;100962.53;;;0.71;100.00
30421;BME280;17218;54.070;10.012;2023-03-15T06:22:27;100937.25;;;0.77;100.00
30421;BME280;17218;54.070;10.012;2023-03-15T06:24:53;100940.44;;;0.71;100.00
30421;BME280;17218;54.070;10.012;2023-03-15T06:27:21;100919.94;;;0.68;100.00
30421;BME280;17218;54.070;10.012;2023-03-15T06:29:48;100925.69;;;0.63;100.00
30421;BME280;17218;54.070;10.012;2023-03-15T06:32:14;100932.34;;;0.59;100.00
30421;BME280;17218;54.070;10.012;2023-03-15T06:34:41;100944.03;;;0.54;100.00
30421;BME280;17218;54.070;10.012;2023-03-15T06:37:07;100943.72;;;0.44;100.00
30421;BME280;17218;54.070;10.012;2023-03-15T06:39:34;100940.16;;;0.41;100.00
30421;BME280;17218;54.070;10.012;2023-03-15T06:42:00;100938.38;;;0.38;100.00
30421;BME280;17218;54.070;10.012;2023-03-15T06:44:30;100924.72;;;0.36;100.00
30421;BME280;17218;54.070;10.012;2023-03-15T06:46:56;100929.91;;;0.39;100.00
30421;BME280;17218;54.070;10.012;2023-03-15T06:49:23;100943.38;;;0.35;100.00
30421;BME280;17218;54.070;10.012;2023-03-15T06:51:49;100947.53;;;0.33;100.00
30421;BME280;17218;54.070;10.012;2023-03-15T06:54:16;100952.81;;;0.15;100.00
30421;BME280;17218;54.070;10.012;2023-03-15T06:56:42;100953.06;;;-0.01;100.00
30421;BME280;17218;54.070;10.012;2023-03-15T06:59:09;100968.19;;;-0.04;100.00
30421;BME280;17218;54.070;10.012;2023-03-15T07:01:36;100972.94;;;0.08;100.00
30421;BME280;17218;54.070;10.012;2023-03-15T07:04:03;100986.03;;;0.18;100.00
30421;BME280;17218;54.070;10.012;2023-03-15T07:06:30;100984.38;;;0.18;100.00
30421;BME280;17218;54.070;10.012;2023-03-15T07:08:56;100982.19;;;0.06;100.00
30421;BME280;17218;54.070;10.012;2023-03-15T07:11:23;100980.31;;;0.02;100.00
30421;BME280;17218;54.070;10.012;2023-03-15T07:13:49;100983.19;;;0.10;100.00
30421;BME280;17218;54.070;10.012;2023-03-15T07:16:16;100990.09;;;0.13;100.00
30421;BME280;17218;54.070;10.012;2023-03-15T07:18:43;100998.88;;;0.21;100.00
30421;BME280;17218;54.070;10.012;2023-03-15T07:21:10;101010.00;;;0.44;100.00
30421;BME280;17218;54.070;10.012;2023-03-15T07:23:36;101004.81;;;0.43;100.00
30421;BME280;17218;54.070;10.012;2023-03-15T07:26:03;101004.25;;;0.50;100.00
30421;BME280;17218;54.070;10.012;2023-03-15T07:28:30;101010.69;;;0.40;100.00
30421;BME280;17218;54.070;10.012;2023-03-15T07:30:57;101009.97;;;0.21;100.00
30421;BME280;17218;54.070;10.012;2023-03-15T07:33:25;101008.34;;;0.23;100.00
30421;BME280;17218;54.070;10.012;2023-03-15T07:35:54;101007.09;;;0.35;100.00
30421;BME280;17218;54.070;10.012;2023-03-15T07:38:21;100994.66;;;0.66;100.00
30421;BME280;17218;54.070;10.012;2023-03-15T07:40:48;100993.06;;;0.92;100.00
30421;BME280;17218;54.070;10.012;2023-03-15T07:43:14;100994.78;;;0.93;100.00
30421;BME280;17218;54.070;10.012;2023-03-15T07:45:41;100988.03;;;0.94;100.00
30421;BME280;17218;54.070;10.012;2023-03-15T07:48:08;100988.53;;;0.85;100.00
30421;BME280;17218;54.070;10.012;2023-03-15T07:50:35;100996.38;;;0.90;100.00
30421;BME280;17218;54.070;10.012;2023-03-15T07:53:04;100995.78;;;0.74;100.00
30421;BME280;17218;54.070;10.012;2023-03-15T07:55:30;101003.13;;;0.65;100.00
30421;BME280;17218;54.070;10.012;2023-03-15T07:57:57;101003.84;;;0.62;100.00
30421;BME280;17218;54.070;10.012;2023-03-15T08:00:24;101006.75;;;0.71;100.00
30421;BME280;17218;54.070;10.012;2023-03-15T08:02:51;101010.78;;;0.89;100.00
30421;BME280;17218;54.070;10.012;2023-03-15T08:05:18;101008.03;;;0.83;100.00
30421;BME280;17218;54.070;10.012;2023-03-15T08:07:44;101004.38;;;0.76;100.00
30421;BME280;17218;54.070;10.012;2023-03-15T08:10:13;101002.09;;;0.84;100.00
30421;BME280;17218;54.070;10.012;2023-03-15T08:12:40;101000.06;;;0.98;100.00
30421;BME280;17218;54.070;10.012;2023-03-15T08:15:08;101005.56;;;1.09;100.00
30421;BME280;17218;54.070;10.012;2023-03-15T08:17:36;101005.97;;;1.20;100.00
30421;BME280;17218;54.070;10.012;2023-03-15T08:20:03;101012.66;;;1.42;100.00
30421;BME280;17218;54.070;10.012;2023-03-15T08:22:30;101025.50;;;1.70;100.00
30421;BME280;17218;54.070;10.012;2023-03-15T08:24:56;101020.84;;;1.83;100.00
30421;BME280;17218;54.070;10.012;2023-03-15T08:27:24;101033.25;;;1.72;100.00
30421;BME280;17218;54.070;10.012;2023-03-15T08:29:50;101039.47;;;1.80;100.00
30421;BME280;17218;54.070;10.012;2023-03-15T08:32:17;101041.59;;;1.92;100.00
30421;BME280;17218;54.070;10.012;2023-03-15T08:34:44;101056.25;;;1.98;100.00
30421;BME280;17218;54.070;10.012;2023-03-15T08:37:11;101055.69;;;2.07;100.00
30421;BME280;17218;54.070;10.012;2023-03-15T08:39:38;101061.16;;;1.92;100.00
30421;BME280;17218;54.070;10.012;2023-03-15T08:42:05;101054.38;;;1.67;100.00
30421;BME280;17218;54.070;10.012;2023-03-15T08:44:33;101051.22;;;1.26;100.00
30421;BME280;17218;54.070;10.012;2023-03-15T08:47:00;101070.66;;;1.22;100.00
30421;BME280;17218;54.070;10.012;2023-03-15T08:49:26;101076.38;;;1.39;100.00
30421;BME280;17218;54.070;10.012;2023-03-15T08:51:52;101084.88;;;1.63;100.00
30421;BME280;17218;54.070;10.012;2023-03-15T08:54:19;101087.31;;;1.60;100.00
30421;BME280;17218;54.070;10.012;2023-03-15T08:56:46;101085.03;;;1.92;100.00
30421;BME280;17218;54.070;10.012;2023-03-15T08:59:12;101078.66;;;2.05;100.00
30421;BME280;17218;54.070;10.012;2023-03-15T09:01:40;101081.66;;;2.19;100.00
30421;BME280;17218;54.070;10.012;2023-03-15T09:04:09;101074.84;;;1.94;100.00
30421;BME280;17218;54.070;10.012;2023-03-15T09:06:35;101083.22;;;1.89;100.00
30421;BME280;17218;54.070;10.012;2023-03-15T09:09:02;101088.72;;;1.76;100.00
30421;BME280;17218;54.070;10.012;2023-03-15T09:11:28;101092.03;;;1.98;100.00
30421;BME280;17218;54.070;10.012;2023-03-15T09:13:55;101086.53;;;1.87;100.00
30421;BME280;17218;54.070;10.012;2023-03-15T09:16:21;101091.16;;;1.97;100.00
30421;BME280;17218;54.070;10.012;2023-03-15T09:18:49;101106.28;;;2.17;100.00
30421;BME280;17218;54.070;10.012;2023-03-15T09:21:15;101105.97;;;2.34;100.00
30421;BME280;17218;54.070;10.012;2023-03-15T09:23:42;101104.78;;;2.50;100.00
30421;BME280;17218;54.070;10.012;2023-03-15T09:26:08;101103.69;;;2.69;100.00
30421;BME280;17218;54.070;10.012;2023-03-15T09:28:35;101105.75;;;3.10;100.00
30421;BME280;17218;54.070;10.012;2023-03-15T09:31:03;101104.66;;;3.33;100.00
30421;BME280;17218;54.070;10.012;2023-03-15T09:33:30;101101.81;;;3.22;100.00
30421;BME280;17218;54.070;10.012;2023-03-15T09:35:58;101109.13;;;3.40;100.00
30421;BME280;17218;54.070;10.012;2023-03-15T09:38:25;101108.97;;;3.65;100.00
30421;BME280;17218;54.070;10.012;2023-03-15T09:40:55;101103.13;;;3.38;100.00
30421;BME280;17218;54.070;10.012;2023-03-15T09:43:54;101100.38;;;3.63;100.00
30421;BME280;17218;54.070;10.012;2023-03-15T09:46:29;101116.19;;;3.80;100.00
30421;BME280;17218;54.070;10.012;2023-03-15T09:49:02;101125.34;;;3.39;100.00
30421;BME280;17218;54.070;10.012;2023-03-15T09:51:38;101110.91;;;3.41;100.00
30421;BME280;17218;54.070;10.012;2023-03-15T09:54:10;101116.91;;;3.74;100.00
30421;BME280;17218;54.070;10.012;2023-03-15T09:56:39;101112.75;;;3.79;100.00
30421;BME280;17218;54.070;10.012;2023-03-15T09:59:10;101110.69;;;3.98;100.00
30421;BME280;17218;54.070;10.012;2023-03-15T10:01:39;101105.28;;;4.21;100.00
30421;BME280;17218;54.070;10.012;2023-03-15T10:04:10;101109.38;;;4.14;100.00
30421;BME280;17218;54.070;10.012;2023-03-15T10:06:42;101116.50;;;3.91;100.00
30421;BME280;17218;54.070;10.012;2023-03-15T10:09:15;101114.34;;;4.07;100.00
30421;BME280;17218;54.070;10.012;2023-03-15T10:11:46;101125.50;;;4.09;100.00
30421;BME280;17218;54.070;10.012;2023-03-15T10:14:25;101120.91;;;3.97;100.00
30421;BME280;17218;54.070;10.012;2023-03-15T10:16:55;101129.38;;;3.94;100.00
30421;BME280;17218;54.070;10.012;2023-03-15T10:19:27;101129.09;;;3.83;100.00
30421;BME280;17218;54.070;10.012;2023-03-15T10:22:01;101120.06;;;3.98;100.00
30421;BME280;17218;54.070;10.012;2023-03-15T10:24:36;101116.63;;;3.96;100.00
30421;BME280;17218;54.070;10.012;2023-03-15T10:27:14;101130.31;;;3.98;100.00
30421;BME280;17218;54.070;10.012;2023-03-15T10:29:45;101127.69;;;3.94;100.00
30421;BME280;17218;54.070;10.012;2023-03-15T10:32:15;101114.28;;;4.05;100.00
30421;BME280;17218;54.070;10.012;2023-03-15T10:34:46;101119.63;;;4.14;100.00
30421;BME280;17218;54.070;10.012;2023-03-15T10:37:14;101123.88;;;4.12;100.00
30421;BME280;17218;54.070;10.012;2023-03-15T10:39:42;101111.72;;;4.05;100.00
30421;BME280;17218;54.070;10.012;2023-03-15T10:42:25;101112.56;;;4.04;100.00
30421;BME280;17218;54.070;10.012;2023-03-15T10:44:51;101119.84;;;4.22;100.00
30421;BME280;17218;54.070;10.012;2023-03-15T10:47:19;101110.72;;;4.34;100.00
30421;BME280;17218;54.070;10.012;2023-03-15T10:49:46;101126.69;;;4.59;100.00
30421;BME280;17218;54.070;10.012;2023-03-15T10:52:34;101132.53;;;4.90;100.00
30421;BME280;17218;54.070;10.012;2023-03-15T10:55:10;101136.88;;;5.33;100.00
30421;BME280;17218;54.070;10.012;2023-03-15T10:57:39;101132.44;;;5.67;100.00
30421;BME280;17218;54.070;10.012;2023-03-15T11:00:19;101127.88;;;5.99;100.00
30421;BME280;17218;54.070;10.012;2023-03-15T11:02:49;101131.56;;;6.66;100.00
30421;BME280;17218;54.070;10.012;2023-03-15T11:05:17;101138.78;;;6.90;100.00
30421;BME280;17218;54.070;10.012;2023-03-15T11:07:57;101133.56;;;6.84;100.00
30421;BME280;17218;54.070;10.012;2023-03-15T11:10:25;101139.31;;;7.31;100.00
30421;BME280;17218;54.070;10.012;2023-03-15T11:13:11;101128.78;;;7.87;100.00
30421;BME280;17218;54.070;10.012;2023-03-15T11:15:38;101129.69;;;7.91;100.00
30421;BME280;17218;54.070;10.012;2023-03-15T11:18:05;101144.63;;;7.44;100.00
30421;BME280;17218;54.070;10.012;2023-03-15T11:20:39;101161.53;;;6.62;100.00
30421;BME280;17218;54.070;10.012;2023-03-15T11:23:14;101172.78;;;5.30;100.00
30421;BME280;17218;54.070;10.012;2023-03-15T11:25:42;101174.88;;;5.08;100.00
30421;BME280;17218;54.070;10.012;2023-03-15T11:28:15;101170.38;;;4.60;100.00
30421;BME280;17218;54.070;10.012;2023-03-15T11:30:43;101171.06;;;4.53;100.00
30421;BME280;17218;54.070;10.012;2023-03-15T11:33:28;101180.25;;;4.45;100.00
30421;BME280;17218;54.070;10.012;2023-03-15T11:35:59;101176.25;;;4.56;100.00
30421;BME280;17218;54.070;10.012;2023-03-15T11:38:30;101178.59;;;5.21;100.00
30421;BME280;17218;54.070;10.012;2023-03-15T11:40:59;101188.47;;;6.83;100.00
30421;BME280;17218;54.070;10.012;2023-03-15T11:43:32;101172.22;;;9.63;100.00
30421;BME280;17218;54.070;10.012;2023-03-15T11:46:08;101161.69;;;11.77;100.00
30421;BME280;17218;54.070;10.012;2023-03-15T11:48:41;101162.22;;;14.99;100.00
30421;BME280;17218;54.070;10.012;2023-03-15T11:51:10;101156.84;;;17.60;100.00
30421;BME280;17218;54.070;10.012;2023-03-15T11:53:43;101159.78;;;19.82;88.81
30421;BME280;17218;54.070;10.012;2023-03-15T11:56:22;101146.59;;;20.27;79.14
30421;BME280;17218;54.070;10.012;2023-03-15T11:59:04;101164.72;;;19.43;67.49
30421;BME280;17218;54.070;10.012;2023-03-15T12:01:32;101151.44;;;18.22;63.35
30421;BME280;17218;54.070;10.012;2023-03-15T12:04:36;101139.25;;;17.92;58.58
30421;BME280;17218;54.070;10.012;2023-03-15T12:07:04;101156.00;;;18.17;61.37
30421;BME280;17218;54.070;10.012;2023-03-15T12:09:46;101165.56;;;17.60;59.87
30421;BME280;17218;54.070;10.012;2023-03-15T12:12:36;101176.72;;;14.64;62.77
30421;BME280;17218;54.070;10.012;2023-03-15T12:15:06;101190.88;;;12.17;77.62
30421;BME280;17218;54.070;10.012;2023-03-15T12:17:44;101174.94;;;10.47;100.00
30421;BME280;17218;54.070;10.012;2023-03-15T12:20:17;101175.31;;;8.98;100.00
30421;BME280;17218;54.070;10.012;2023-03-15T12:22:49;101181.59;;;8.22;100.00
30421;BME280;17218;54.070;10.012;2023-03-15T12:25:31;101183.75;;;7.13;100.00
30421;BME280;17218;54.070;10.012;2023-03-15T12:28:04;101194.03;;;7.11;100.00
30421;BME280;17218;54.070;10.012;2023-03-15T12:30:37;101180.84;;;9.70;100.00
30421;BME280;17218;54.070;10.012;2023-03-15T12:33:12;101173.16;;;13.51;100.00
30421;BME280;17218;54.070;10.012;2023-03-15T12:35:41;101177.09;;;16.56;82.93
30421;BME280;17218;54.070;10.012;2023-03-15T12:38:11;101165.31;;;18.78;75.04
30421;BME280;17218;54.070;10.012;2023-03-15T12:40:50;101163.91;;;20.33;60.81
30421;BME280;17218;54.070;10.012;2023-03-15T12:43:36;101182.94;;;20.40;47.22
30421;BME280;17218;54.070;10.012;2023-03-15T12:46:03;101177.19;;;20.30;51.53
30421;BME280;17218;54.070;10.012;2023-03-15T12:48:31;101182.25;;;22.13;48.07
30421;BME280;17218;54.070;10.012;2023-03-15T12:51:03;101194.50;;;20.98;40.66
30421;BME280;17218;54.070;10.012;2023-03-15T12:53:46;101186.47;;;20.80;44.59